ADDS METAR Data INFO
IDs: Format: Raw Decoded Include TAF

Data at: 0806 UTC 23 Jul 2018

KPKD 230753Z AUTO 13003KT 4SM RA BR OVC050 19/17 A3007 RMK AO2 RAB0658E22B48 SLP176 P0003 T01890172
KPKD 230653Z AUTO 18004KT 9SM FEW090 BKN120 19/17 A3006 RMK AO2 RAB01E46 SLP175 P0000 T01940172
KPKD 230553Z AUTO 19006KT 8SM BKN110 19/17 A3005 RMK AO2 RAE07B26E37 SLP173 P0000 60001 T01940172 10256 20194 402670167 58012
KPKD 230453Z AUTO 15007KT 7SM -RA SCT100 BKN120 19/18 A3007 RMK AO2 RAB13 SLP179 P0001 T01940178
KPKD 230353Z AUTO 15005KT 9SM BKN100 21/17 A3009 RMK AO2 SLP187 T02060167
KPKD 230253Z AUTO 12003KT 10SM CLR 21/17 A3009 RMK AO2 SLP186 T02110167 53009
KPKD 230153Z AUTO 11005KT 10SM CLR 22/17 A3006 RMK AO2 SLP177 T02220167
KPKD 230053Z AUTO 11007KT 10SM CLR 24/17 A3006 RMK AO2 SLP175 T02440172
KPKD 222353Z AUTO 14008KT 10SM CLR 26/16 A3006 RMK AO2 SLP175 T02560161 10267 20233 56008
KPKD 222253Z AUTO 14010KT 10SM SCT036 26/16 A3006 RMK AO2 SLP176 T02610161
KPKD 222153Z AUTO 15008KT 10SM FEW042 26/16 A3007 RMK AO2 SLP180 T02560161
KPKD 222053Z AUTO 15005KT 10SM FEW038 SCT047 SCT055 26/17 A3009 RMK AO2 SLP183 T02610167 58002
KPKD 221953Z AUTO 19006KT 10SM SCT031 26/17 A3009 RMK AO2 SLP184 T02560167
KPKD 221853Z AUTO 13009KT 10SM SCT028 24/16 A3009 RMK AO2 SLP185 T02440161
KPKD 221838Z AUTO 16012G16KT 10SM SCT026 25/17 A3009 RMK AO2 T02500167
KPKD 221753Z AUTO 12007KT 10SM BKN023 24/17 A3009 RMK AO2 SLP186 T02390172 10239 20172 56003
KPKD 221653Z AUTO 13008KT 10SM BKN017 22/17 A3010 RMK AO2 SLP188 T02170172
KPKD 221648Z AUTO 17006KT 10SM BKN017 22/17 A3010 RMK AO2
KPKD 221626Z AUTO 11007KT 10SM SCT013 22/17 A3010 RMK AO2 T02170167
KPKD 221553Z AUTO 13007KT 10SM BKN010 21/17 A3010 RMK AO2 SLP191 T02060167
KPKD 221548Z AUTO 14008KT 10SM BKN010 21/16 A3011 RMK AO2
KPKD 221453Z AUTO 09004KT 10SM OVC008 19/16 A3012 RMK AO2 SLP196 T01940161 58006
KPKD 221353Z AUTO 11007KT 10SM OVC007 18/16 A3013 RMK AO2 SLP199 T01830161
KPKD 221330Z AUTO 12007KT 10SM BKN007 18/16 A3013 RMK AO2 T01830161
KPKD 221311Z AUTO 11007KT 10SM SCT007 SCT027 18/16 A3013 RMK AO2 T01830161
KPKD 221253Z AUTO 12005KT 10SM BKN006 OVC027 18/16 A3014 RMK AO2 CIG 005V010 SLP203 T01780156
KPKD 221236Z AUTO 13007KT 10SM OVC005 18/16 A3014 RMK AO2 CIG 004V008 T01780161
KPKD 221153Z AUTO 12006KT 7SM OVC003 17/16 A3013 RMK AO2 SLP201 T01720161 10189 20167 50007
KPKD 221104Z AUTO 13007KT 8SM BKN004 17/16 A3014 RMK AO2 T01720161
KPKD 221053Z AUTO 12005KT 8SM SCT004 17/16 A3014 RMK AO2 SLP201 T01720161
KPKD 220953Z AUTO 11003KT 10SM CLR 18/16 A3013 RMK AO2 SLP200 T01780161
KPKD 220853Z AUTO 11004KT 10SM CLR 18/17 A3011 RMK AO2 SLP193 T01780167 55007
KPKD 220753Z AUTO 09006KT 10SM CLR 19/17 A3010 RMK AO2 SLP188 T01890167
KPKD 220653Z AUTO 06005KT 10SM CLR 18/17 A3013 RMK AO2 SLP198 T01830167
KPKD 220553Z AUTO 00000KT 10SM CLR 19/17 A3013 RMK AO2 SLP200 T01890167 10250 20183 402560167 53004
KPKD 220453Z AUTO 00000KT 10SM CLR 19/17 A3013 RMK AO2 SLP200 T01940172
KPKD 220353Z AUTO 00000KT 10SM CLR 19/17 A3012 RMK AO2 SLP198 T01940167
KPKD 220253Z AUTO 05004KT 10SM CLR 21/17 A3012 RMK AO2 SLP196 T02060167 53008
KPKD 220153Z AUTO VRB03KT 10SM CLR 22/16 A3011 RMK AO2 SLP193 T02220161
KPKD 220053Z AUTO 03004KT 10SM CLR 24/16 A3010 RMK AO2 SLP187 T02440156
KPKD 212353Z AUTO VRB05KT 10SM CLR 25/15 A3010 RMK AO2 SLP188 T02500150 10256 20228 55000
KPKD 212253Z AUTO 04008KT 10SM SCT035 24/14 A3009 RMK AO2 SLP186 T02440144
KPKD 212153Z AUTO 03010KT 10SM FEW034 24/16 A3010 RMK AO2 SLP188 T02440156
KPKD 212053Z AUTO 06006KT 10SM OVC041 24/15 A3010 RMK AO2 SLP189 T02390150 56004